sensor_id;sensor_type;location;lat;lon;timestamp;temperature;humidity
10384;DHT22;5238;43.508;4.980;2023-04-07T00:00:10;11.50;91.30
10384;DHT22;5238;43.508;4.980;2023-04-07T00:02:39;11.40;91.30
10384;DHT22;5238;43.508;4.980;2023-04-07T00:05:09;11.40;91.30
10384;DHT22;5238;43.508;4.980;2023-04-07T00:07:38;11.30;91.30
10384;DHT22;5238;43.508;4.980;2023-04-07T00:10:06;11.30;91.30
10384;DHT22;5238;43.508;4.980;2023-04-07T00:12:33;11.30;91.30
10384;DHT22;5238;43.508;4.980;2023-04-07T00:15:02;11.30;91.30
10384;DHT22;5238;43.508;4.980;2023-04-07T00:17:29;11.30;91.30
10384;DHT22;5238;43.508;4.980;2023-04-07T00:19:57;11.30;91.30
10384;DHT22;5238;43.508;4.980;2023-04-07T00:22:29;11.20;91.30
10384;DHT22;5238;43.508;4.980;2023-04-07T00:24:57;11.20;91.30
10384;DHT22;5238;43.508;4.980;2023-04-07T00:27:24;11.10;91.30
10384;DHT22;5238;43.508;4.980;2023-04-07T00:29:54;11.10;91.30
10384;DHT22;5238;43.508;4.980;2023-04-07T00:32:24;11.10;91.30
10384;DHT22;5238;43.508;4.980;2023-04-07T00:34:53;11.10;91.30
10384;DHT22;5238;43.508;4.980;2023-04-07T00:37:31;11.00;91.30
10384;DHT22;5238;43.508;4.980;2023-04-07T00:40:00;11.00;91.30
10384;DHT22;5238;43.508;4.980;2023-04-07T00:42:28;10.90;91.30
10384;DHT22;5238;43.508;4.980;2023-04-07T00:44:55;10.90;91.30
10384;DHT22;5238;43.508;4.980;2023-04-07T00:47:23;10.80;91.30
10384;DHT22;5238;43.508;4.980;2023-04-07T00:49:53;10.80;91.30
10384;DHT22;5238;43.508;4.980;2023-04-07T00:52:39;10.70;91.30
10384;DHT22;5238;43.508;4.980;2023-04-07T00:55:07;10.70;91.30
10384;DHT22;5238;43.508;4.980;2023-04-07T00:57:35;10.60;91.30
10384;DHT22;5238;43.508;4.980;2023-04-07T01:00:02;10.60;91.30
10384;DHT22;5238;43.508;4.980;2023-04-07T01:02:34;10.60;91.30
10384;DHT22;5238;43.508;4.980;2023-04-07T01:05:11;10.50;91.30
10384;DHT22;5238;43.508;4.980;2023-04-07T01:07:54;10.60;91.30
10384;DHT22;5238;43.508;4.980;2023-04-07T01:10:30;10.60;91.30
10384;DHT22;5238;43.508;4.980;2023-04-07T01:13:12;10.60;91.30
10384;DHT22;5238;43.508;4.980;2023-04-07T01:15:47;10.60;91.30
10384;DHT22;5238;43.508;4.980;2023-04-07T01:18:20;10.60;91.30
10384;DHT22;5238;43.508;4.980;2023-04-07T01:20:58;10.60;91.30
10384;DHT22;5238;43.508;4.980;2023-04-07T01:23:46;10.60;91.30
10384;DHT22;5238;43.508;4.980;2023-04-07T01:26:27;10.60;91.30
10384;DHT22;5238;43.508;4.980;2023-04-07T01:32:19;10.60;91.30
10384;DHT22;5238;43.508;4.980;2023-04-07T01:34:48;10.70;91.30
10384;DHT22;5238;43.508;4.980;2023-04-07T01:37:16;10.70;91.30
10384;DHT22;5238;43.508;4.980;2023-04-07T01:39:45;10.70;91.30
10384;DHT22;5238;43.508;4.980;2023-04-07T01:42:15;10.80;91.30
10384;DHT22;5238;43.508;4.980;2023-04-07T01:44:45;10.80;91.30
10384;DHT22;5238;43.508;4.980;2023-04-07T01:47:18;10.90;91.30
10384;DHT22;5238;43.508;4.980;2023-04-07T01:49:46;10.90;91.30
10384;DHT22;5238;43.508;4.980;2023-04-07T01:52:17;10.90;91.30
10384;DHT22;5238;43.508;4.980;2023-04-07T01:54:46;10.90;91.30
10384;DHT22;5238;43.508;4.980;2023-04-07T01:57:13;10.90;91.30
10384;DHT22;5238;43.508;4.980;2023-04-07T01:59:43;10.80;91.30
10384;DHT22;5238;43.508;4.980;2023-04-07T02:02:18;10.80;91.30
10384;DHT22;5238;43.508;4.980;2023-04-07T02:04:51;10.70;91.30
10384;DHT22;5238;43.508;4.980;2023-04-07T02:07:28;10.60;91.30
10384;DHT22;5238;43.508;4.980;2023-04-07T02:10:02;10.60;91.30
10384;DHT22;5238;43.508;4.980;2023-04-07T02:12:36;10.50;91.30
10384;DHT22;5238;43.508;4.980;2023-04-07T02:15:07;10.40;91.30
10384;DHT22;5238;43.508;4.980;2023-04-07T02:17:43;10.40;91.30
10384;DHT22;5238;43.508;4.980;2023-04-07T02:20:13;10.40;91.30
10384;DHT22;5238;43.508;4.980;2023-04-07T02:22:42;10.30;91.30
10384;DHT22;5238;43.508;4.980;2023-04-07T02:25:21;10.30;91.30
10384;DHT22;5238;43.508;4.980;2023-04-07T02:27:48;10.30;91.30
10384;DHT22;5238;43.508;4.980;2023-04-07T02:30:21;10.30;91.30
10384;DHT22;5238;43.508;4.980;2023-04-07T02:32:50;10.30;91.30
10384;DHT22;5238;43.508;4.980;2023-04-07T02:38:51;10.30;91.30
10384;DHT22;5238;43.508;4.980;2023-04-07T02:41:18;10.20;91.30
10384;DHT22;5238;43.508;4.980;2023-04-07T02:43:46;10.20;91.30
10384;DHT22;5238;43.508;4.980;2023-04-07T02:46:18;10.20;91.30
10384;DHT22;5238;43.508;4.980;2023-04-07T02:48:54;10.20;91.30
10384;DHT22;5238;43.508;4.980;2023-04-07T02:51:30;10.20;91.30
10384;DHT22;5238;43.508;4.980;2023-04-07T02:53:57;10.20;91.30
10384;DHT22;5238;43.508;4.980;2023-04-07T02:56:28;10.10;91.30
10384;DHT22;5238;43.508;4.980;2023-04-07T02:58:55;10.10;91.30
10384;DHT22;5238;43.508;4.980;2023-04-07T03:01:22;10.10;91.30
10384;DHT22;5238;43.508;4.980;2023-04-07T03:03:54;10.00;91.30
10384;DHT22;5238;43.508;4.980;2023-04-07T03:06:21;9.90;91.30
10384;DHT22;5238;43.508;4.980;2023-04-07T03:08:52;9.90;91.30
10384;DHT22;5238;43.508;4.980;2023-04-07T03:11:22;9.90;91.30
10384;DHT22;5238;43.508;4.980;2023-04-07T03:13:52;9.90;91.30
10384;DHT22;5238;43.508;4.980;2023-04-07T03:16:22;9.90;91.30
10384;DHT22;5238;43.508;4.980;2023-04-07T03:18:50;9.80;91.30
10384;DHT22;5238;43.508;4.980;2023-04-07T03:21:21;9.90;91.30
10384;DHT22;5238;43.508;4.980;2023-04-07T03:23:49;9.80;91.30
10384;DHT22;5238;43.508;4.980;2023-04-07T03:26:38;9.80;91.30
10384;DHT22;5238;43.508;4.980;2023-04-07T03:29:11;9.80;91.30
10384;DHT22;5238;43.508;4.980;2023-04-07T03:31:38;9.80;91.30
10384;DHT22;5238;43.508;4.980;2023-04-07T03:34:10;9.80;91.30
10384;DHT22;5238;43.508;4.980;2023-04-07T03:36:42;9.80;91.30
10384;DHT22;5238;43.508;4.980;2023-04-07T03:39:11;9.70;91.30
10384;DHT22;5238;43.508;4.980;2023-04-07T03:41:40;9.70;91.30
10384;DHT22;5238;43.508;4.980;2023-04-07T03:44:07;9.70;91.30
10384;DHT22;5238;43.508;4.980;2023-04-07T03:46:51;9.70;91.30
10384;DHT22;5238;43.508;4.980;2023-04-07T03:49:18;9.70;91.30
10384;DHT22;5238;43.508;4.980;2023-04-07T03:51:50;9.70;91.30
10384;DHT22;5238;43.508;4.980;2023-04-07T03:54:17;9.70;91.30
10384;DHT22;5238;43.508;4.980;2023-04-07T03:56:51;9.60;91.30
10384;DHT22;5238;43.508;4.980;2023-04-07T03:59:21;9.60;91.30
10384;DHT22;5238;43.508;4.980;2023-04-07T04:01:48;9.60;91.30
10384;DHT22;5238;43.508;4.980;2023-04-07T04:04:17;9.50;91.30
10384;DHT22;5238;43.508;4.980;2023-04-07T04:06:44;9.50;91.30
10384;DHT22;5238;43.508;4.980;2023-04-07T04:09:16;9.50;91.30
10384;DHT22;5238;43.508;4.980;2023-04-07T04:11:43;9.50;91.30
10384;DHT22;5238;43.508;4.980;2023-04-07T04:14:21;9.50;91.30
10384;DHT22;5238;43.508;4.980;2023-04-07T04:30:20;9.30;91.30
10384;DHT22;5238;43.508;4.980;2023-04-07T04:32:47;9.30;91.30
10384;DHT22;5238;43.508;4.980;2023-04-07T04:35:16;9.30;91.30
10384;DHT22;5238;43.508;4.980;2023-04-07T04:37:47;9.20;91.30
10384;DHT22;5238;43.508;4.980;2023-04-07T04:40:17;9.20;91.30
10384;DHT22;5238;43.508;4.980;2023-04-07T04:42:46;9.20;91.30
10384;DHT22;5238;43.508;4.980;2023-04-07T04:45:15;9.20;91.30
10384;DHT22;5238;43.508;4.980;2023-04-07T04:47:49;9.20;91.30
10384;DHT22;5238;43.508;4.980;2023-04-07T04:50:20;9.10;91.30
10384;DHT22;5238;43.508;4.980;2023-04-07T04:52:49;9.10;91.30
10384;DHT22;5238;43.508;4.980;2023-04-07T04:55:18;9.10;91.30
10384;DHT22;5238;43.508;4.980;2023-04-07T04:57:45;9.20;91.30
10384;DHT22;5238;43.508;4.980;2023-04-07T05:00:15;9.20;91.30
10384;DHT22;5238;43.508;4.980;2023-04-07T05:02:48;9.20;91.30
10384;DHT22;5238;43.508;4.980;2023-04-07T05:05:26;9.10;91.30
10384;DHT22;5238;43.508;4.980;2023-04-07T05:07:53;9.10;91.30
10384;DHT22;5238;43.508;4.980;2023-04-07T05:10:20;9.10;91.30
10384;DHT22;5238;43.508;4.980;2023-04-07T05:12:47;9.00;91.30
10384;DHT22;5238;43.508;4.980;2023-04-07T05:15:15;9.00;91.30
10384;DHT22;5238;43.508;4.980;2023-04-07T05:17:42;9.00;91.30
10384;DHT22;5238;43.508;4.980;2023-04-07T05:20:17;9.00;91.30
10384;DHT22;5238;43.508;4.980;2023-04-07T05:22:46;8.90;91.30
10384;DHT22;5238;43.508;4.980;2023-04-07T05:25:15;8.90;91.30
10384;DHT22;5238;43.508;4.980;2023-04-07T05:27:47;8.90;91.30
10384;DHT22;5238;43.508;4.980;2023-04-07T05:30:17;8.90;91.30
10384;DHT22;5238;43.508;4.980;2023-04-07T05:32:45;8.90;91.30
10384;DHT22;5238;43.508;4.980;2023-04-07T05:42:16;8.90;91.30
10384;DHT22;5238;43.508;4.980;2023-04-07T05:44:43;8.90;91.30
10384;DHT22;5238;43.508;4.980;2023-04-07T05:47:10;9.00;91.30
10384;DHT22;5238;43.508;4.980;2023-04-07T05:49:37;9.00;91.30
10384;DHT22;5238;43.508;4.980;2023-04-07T05:52:12;9.00;91.30
10384;DHT22;5238;43.508;4.980;2023-04-07T05:54:40;9.10;91.30
10384;DHT22;5238;43.508;4.980;2023-04-07T05:57:07;9.10;91.30
10384;DHT22;5238;43.508;4.980;2023-04-07T05:59:42;9.20;91.30
10384;DHT22;5238;43.508;4.980;2023-04-07T06:02:09;9.20;91.30
10384;DHT22;5238;43.508;4.980;2023-04-07T06:04:38;9.30;91.30
10384;DHT22;5238;43.508;4.980;2023-04-07T06:07:06;9.40;91.30
10384;DHT22;5238;43.508;4.980;2023-04-07T06:09:33;9.50;91.30
10384;DHT22;5238;43.508;4.980;2023-04-07T06:12:07;9.60;91.30
10384;DHT22;5238;43.508;4.980;2023-04-07T06:14:38;9.80;91.30
10384;DHT22;5238;43.508;4.980;2023-04-07T06:17:06;9.90;91.30
10384;DHT22;5238;43.508;4.980;2023-04-07T06:19:36;10.10;91.30
10384;DHT22;5238;43.508;4.980;2023-04-07T06:22:03;10.30;91.30
10384;DHT22;5238;43.508;4.980;2023-04-07T06:24:31;10.60;91.30
10384;DHT22;5238;43.508;4.980;2023-04-07T06:26:59;10.80;91.30
10384;DHT22;5238;43.508;4.980;2023-04-07T06:29:28;11.10;91.30
10384;DHT22;5238;43.508;4.980;2023-04-07T06:32:00;11.40;91.30
10384;DHT22;5238;43.508;4.980;2023-04-07T06:34:27;11.80;91.30
10384;DHT22;5238;43.508;4.980;2023-04-07T06:36:54;12.10;91.30
10384;DHT22;5238;43.508;4.980;2023-04-07T06:39:21;12.50;91.30
10384;DHT22;5238;43.508;4.980;2023-04-07T06:41:48;12.90;91.30
10384;DHT22;5238;43.508;4.980;2023-04-07T06:47:40;13.50;91.30
10384;DHT22;5238;43.508;4.980;2023-04-07T06:50:08;13.90;91.30
10384;DHT22;5238;43.508;4.980;2023-04-07T06:52:39;14.20;91.30
10384;DHT22;5238;43.508;4.980;2023-04-07T06:55:07;14.50;91.30
10384;DHT22;5238;43.508;4.980;2023-04-07T06:57:34;15.00;91.30
10384;DHT22;5238;43.508;4.980;2023-04-07T07:00:07;15.30;91.30
10384;DHT22;5238;43.508;4.980;2023-04-07T07:02:34;15.70;91.30
10384;DHT22;5238;43.508;4.980;2023-04-07T07:05:06;16.20;91.30
10384;DHT22;5238;43.508;4.980;2023-04-07T07:07:35;16.60;91.30
10384;DHT22;5238;43.508;4.980;2023-04-07T07:10:02;16.90;91.30
10384;DHT22;5238;43.508;4.980;2023-04-07T07:12:32;17.30;91.30
10384;DHT22;5238;43.508;4.980;2023-04-07T07:15:06;17.70;91.30
10384;DHT22;5238;43.508;4.980;2023-04-07T07:17:33;18.10;91.30
10384;DHT22;5238;43.508;4.980;2023-04-07T07:20:00;18.50;91.30
10384;DHT22;5238;43.508;4.980;2023-04-07T07:22:28;18.80;91.30
10384;DHT22;5238;43.508;4.980;2023-04-07T07:24:59;19.20;91.30
10384;DHT22;5238;43.508;4.980;2023-04-07T07:27:26;19.60;91.30
10384;DHT22;5238;43.508;4.980;2023-04-07T07:29:55;20.00;91.30
10384;DHT22;5238;43.508;4.980;2023-04-07T07:32:26;20.30;91.30
10384;DHT22;5238;43.508;4.980;2023-04-07T07:34:53;20.70;91.30
10384;DHT22;5238;43.508;4.980;2023-04-07T07:37:25;21.10;91.30
10384;DHT22;5238;43.508;4.980;2023-04-07T07:39:53;21.50;91.30
10384;DHT22;5238;43.508;4.980;2023-04-07T07:42:21;21.90;91.30
10384;DHT22;5238;43.508;4.980;2023-04-07T07:44:52;22.10;91.30
10384;DHT22;5238;43.508;4.980;2023-04-07T07:47:19;22.50;91.30
10384;DHT22;5238;43.508;4.980;2023-04-07T07:56:32;23.50;88.90
10384;DHT22;5238;43.508;4.980;2023-04-07T07:59:02;23.90;87.50
10384;DHT22;5238;43.508;4.980;2023-04-07T08:01:32;24.20;86.70
10384;DHT22;5238;43.508;4.980;2023-04-07T08:04:04;24.20;84.60
10384;DHT22;5238;43.508;4.980;2023-04-07T08:06:35;24.50;83.90
10384;DHT22;5238;43.508;4.980;2023-04-07T08:09:08;24.60;83.30
10384;DHT22;5238;43.508;4.980;2023-04-07T08:11:46;24.80;82.60
10384;DHT22;5238;43.508;4.980;2023-04-07T08:14:15;24.90;82.80
10384;DHT22;5238;43.508;4.980;2023-04-07T08:16:42;25.10;82.40
10384;DHT22;5238;43.508;4.980;2023-04-07T08:19:10;25.40;81.60
10384;DHT22;5238;43.508;4.980;2023-04-07T08:21:40;25.60;81.20
10384;DHT22;5238;43.508;4.980;2023-04-07T08:24:09;25.80;80.20
10384;DHT22;5238;43.508;4.980;2023-04-07T08:26:41;26.00;78.90
10384;DHT22;5238;43.508;4.980;2023-04-07T08:29:32;26.20;79.00
10384;DHT22;5238;43.508;4.980;2023-04-07T08:32:01;26.30;78.40
10384;DHT22;5238;43.508;4.980;2023-04-07T08:34:28;26.40;78.40
10384;DHT22;5238;43.508;4.980;2023-04-07T08:37:09;26.60;78.40
10384;DHT22;5238;43.508;4.980;2023-04-07T08:39:41;26.80;78.00
10384;DHT22;5238;43.508;4.980;2023-04-07T08:42:26;27.00;77.50
10384;DHT22;5238;43.508;4.980;2023-04-07T08:45:00;27.20;78.00
10384;DHT22;5238;43.508;4.980;2023-04-07T08:47:30;27.30;77.50
10384;DHT22;5238;43.508;4.980;2023-04-07T08:50:16;27.40;77.70
10384;DHT22;5238;43.508;4.980;2023-04-07T08:52:53;27.50;76.20
10384;DHT22;5238;43.508;4.980;2023-04-07T08:55:22;27.80;77.10
10384;DHT22;5238;43.508;4.980;2023-04-07T08:57:54;28.00;76.90
10384;DHT22;5238;43.508;4.980;2023-04-07T09:00:21;28.20;77.00
10384;DHT22;5238;43.508;4.980;2023-04-07T09:02:50;28.30;77.20
10384;DHT22;5238;43.508;4.980;2023-04-07T09:05:17;28.50;75.60
10384;DHT22;5238;43.508;4.980;2023-04-07T09:07:46;28.60;74.60
10384;DHT22;5238;43.508;4.980;2023-04-07T09:10:12;28.70;74.70
10384;DHT22;5238;43.508;4.980;2023-04-07T09:12:44;28.70;74.90
10384;DHT22;5238;43.508;4.980;2023-04-07T09:15:30;28.70;73.30
10384;DHT22;5238;43.508;4.980;2023-04-07T09:18:09;28.80;72.90
10384;DHT22;5238;43.508;4.980;2023-04-07T09:20:55;29.00;73.30
10384;DHT22;5238;43.508;4.980;2023-04-07T09:23:29;29.10;73.20
10384;DHT22;5238;43.508;4.980;2023-04-07T09:25:57;29.30;72.90
10384;DHT22;5238;43.508;4.980;2023-04-07T09:28:42;29.40;72.00
10384;DHT22;5238;43.508;4.980;2023-04-07T09:31:42;29.40;72.10
10384;DHT22;5238;43.508;4.980;2023-04-07T09:34:23;29.40;73.80
10384;DHT22;5238;43.508;4.980;2023-04-07T09:36:51;29.30;71.80
10384;DHT22;5238;43.508;4.980;2023-04-07T09:39:18;29.20;72.00
10384;DHT22;5238;43.508;4.980;2023-04-07T09:41:47;29.10;70.90
10384;DHT22;5238;43.508;4.980;2023-04-07T09:44:16;29.10;72.00
10384;DHT22;5238;43.508;4.980;2023-04-07T09:46:54;29.20;71.50
10384;DHT22;5238;43.508;4.980;2023-04-07T09:49:50;29.20;72.80
10384;DHT22;5238;43.508;4.980;2023-04-07T09:52:18;29.30;71.50
10384;DHT22;5238;43.508;4.980;2023-04-07T09:55:05;29.40;72.30
10384;DHT22;5238;43.508;4.980;2023-04-07T09:57:41;29.50;71.10
10384;DHT22;5238;43.508;4.980;2023-04-07T10:00:19;29.60;71.80
10384;DHT22;5238;43.508;4.980;2023-04-07T10:03:07;29.60;70.60
10384;DHT22;5238;43.508;4.980;2023-04-07T10:05:38;29.70;70.90
10384;DHT22;5238;43.508;4.980;2023-04-07T10:08:09;29.90;70.50
10384;DHT22;5238;43.508;4.980;2023-04-07T10:10:44;30.00;70.80
10384;DHT22;5238;43.508;4.980;2023-04-07T10:13:15;30.00;70.20
10384;DHT22;5238;43.508;4.980;2023-04-07T10:15:43;30.10;69.50
10384;DHT22;5238;43.508;4.980;2023-04-07T10:18:17;30.20;69.90
10384;DHT22;5238;43.508;4.980;2023-04-07T10:20:48;30.10;68.90
10384;DHT22;5238;43.508;4.980;2023-04-07T10:23:23;30.10;69.70
10384;DHT22;5238;43.508;4.980;2023-04-07T10:25:56;30.00;68.50
10384;DHT22;5238;43.508;4.980;2023-04-07T10:28:27;29.90;68.50
10384;DHT22;5238;43.508;4.980;2023-04-07T10:31:01;29.90;68.40
10384;DHT22;5238;43.508;4.980;2023-04-07T10:33:49;29.80;69.50
10384;DHT22;5238;43.508;4.980;2023-04-07T10:37:11;29.80;68.80
10384;DHT22;5238;43.508;4.980;2023-04-07T10:39:39;29.90;69.50
10384;DHT22;5238;43.508;4.980;2023-04-07T10:42:46;30.00;68.80
10384;DHT22;5238;43.508;4.980;2023-04-07T10:45:56;30.00;69.00
10384;DHT22;5238;43.508;4.980;2023-04-07T10:48:26;30.10;69.10
10384;DHT22;5238;43.508;4.980;2023-04-07T10:51:18;30.10;69.20
10384;DHT22;5238;43.508;4.980;2023-04-07T10:57:17;30.30;68.80
10384;DHT22;5238;43.508;4.980;2023-04-07T11:00:13;30.20;68.30
10384;DHT22;5238;43.508;4.980;2023-04-07T11:02:42;30.10;68.60
10384;DHT22;5238;43.508;4.980;2023-04-07T11:05:30;30.10;69.30
10384;DHT22;5238;43.508;4.980;2023-04-07T11:08:07;29.90;69.30
10384;DHT22;5238;43.508;4.980;2023-04-07T11:10:49;29.70;69.40
10384;DHT22;5238;43.508;4.980;2023-04-07T11:13:16;29.40;69.30
10384;DHT22;5238;43.508;4.980;2023-04-07T11:19:18;29.00;70.10
10384;DHT22;5238;43.508;4.980;2023-04-07T11:21:48;28.80;70.20
10384;DHT22;5238;43.508;4.980;2023-04-07T11:24:32;28.50;70.00
10384;DHT22;5238;43.508;4.980;2023-04-07T11:26:59;28.20;70.80
10384;DHT22;5238;43.508;4.980;2023-04-07T11:29:27;27.80;71.00
10384;DHT22;5238;43.508;4.980;2023-04-07T11:32:00;27.60;72.30
10384;DHT22;5238;43.508;4.980;2023-04-07T11:34:29;27.40;72.10
10384;DHT22;5238;43.508;4.980;2023-04-07T11:37:22;27.10;72.50
10384;DHT22;5238;43.508;4.980;2023-04-07T11:39:57;26.90;73.40
10384;DHT22;5238;43.508;4.980;2023-04-07T11:42:32;26.70;73.60
10384;DHT22;5238;43.508;4.980;2023-04-07T11:45:02;26.40;73.50
10384;DHT22;5238;43.508;4.980;2023-04-07T11:47:33;26.10;73.90
10384;DHT22;5238;43.508;4.980;2023-04-07T11:50:03;25.90;74.90
10384;DHT22;5238;43.508;4.980;2023-04-07T11:52:41;25.70;75.20
10384;DHT22;5238;43.508;4.980;2023-04-07T11:55:25;25.40;75.30
10384;DHT22;5238;43.508;4.980;2023-04-07T11:57:54;25.30;76.10
10384;DHT22;5238;43.508;4.980;2023-04-07T12:00:30;25.10;76.00
10384;DHT22;5238;43.508;4.980;2023-04-07T12:03:08;24.90;76.50
10384;DHT22;5238;43.508;4.980;2023-04-07T12:05:51;24.80;76.80
10384;DHT22;5238;43.508;4.980;2023-04-07T12:08:41;24.70;77.00
10384;DHT22;5238;43.508;4.980;2023-04-07T12:11:19;24.50;77.70
10384;DHT22;5238;43.508;4.980;2023-04-07T12:13:46;24.40;78.20
10384;DHT22;5238;43.508;4.980;2023-04-07T12:16:15;24.20;77.80
10384;DHT22;5238;43.508;4.980;2023-04-07T12:18:44;24.10;79.30
10384;DHT22;5238;43.508;4.980;2023-04-07T12:21:14;24.10;79.90
10384;DHT22;5238;43.508;4.980;2023-04-07T12:23:41;24.10;80.00
10384;DHT22;5238;43.508;4.980;2023-04-07T12:26:09;24.10;79.90
10384;DHT22;5238;43.508;4.980;2023-04-07T12:28:41;24.00;79.40
10384;DHT22;5238;43.508;4.980;2023-04-07T12:31:09;23.90;79.50
10384;DHT22;5238;43.508;4.980;2023-04-07T12:33:42;23.90;80.60
10384;DHT22;5238;43.508;4.980;2023-04-07T12:36:35;23.90;80.40
10384;DHT22;5238;43.508;4.980;2023-04-07T12:39:06;24.00;80.10
10384;DHT22;5238;43.508;4.980;2023-04-07T12:41:58;24.00;79.90
10384;DHT22;5238;43.508;4.980;2023-04-07T12:44:26;24.00;81.20
10384;DHT22;5238;43.508;4.980;2023-04-07T12:46:53;23.90;79.50
10384;DHT22;5238;43.508;4.980;2023-04-07T12:49:20;23.80;79.70
10384;DHT22;5238;43.508;4.980;2023-04-07T12:52:04;23.70;79.90
10384;DHT22;5238;43.508;4.980;2023-04-07T12:54:32;23.50;79.90
10384;DHT22;5238;43.508;4.980;2023-04-07T13:10:33;23.20;81.50
10384;DHT22;5238;43.508;4.980;2023-04-07T13:13:00;23.20;81.00
10384;DHT22;5238;43.508;4.980;2023-04-07T13:15:27;23.20;81.20
10384;DHT22;5238;43.508;4.980;2023-04-07T13:17:55;23.10;81.30
10384;DHT22;5238;43.508;4.980;2023-04-07T13:20:22;23.10;81.40
10384;DHT22;5238;43.508;4.980;2023-04-07T13:23:12;23.10;81.00
10384;DHT22;5238;43.508;4.980;2023-04-07T13:25:50;23.10;81.30
10384;DHT22;5238;43.508;4.980;2023-04-07T13:28:19;23.00;81.70
10384;DHT22;5238;43.508;4.980;2023-04-07T13:30:49;23.00;81.60
10384;DHT22;5238;43.508;4.980;2023-04-07T13:33:16;23.00;81.40
10384;DHT22;5238;43.508;4.980;2023-04-07T13:35:45;22.90;82.20
10384;DHT22;5238;43.508;4.980;2023-04-07T13:38:12;22.90;82.00
10384;DHT22;5238;43.508;4.980;2023-04-07T13:40:44;22.90;82.10
10384;DHT22;5238;43.508;4.980;2023-04-07T13:43:14;22.80;82.10
10384;DHT22;5238;43.508;4.980;2023-04-07T13:45:45;22.80;83.00
10384;DHT22;5238;43.508;4.980;2023-04-07T13:48:14;22.80;82.40
10384;DHT22;5238;43.508;4.980;2023-04-07T13:50:42;22.70;82.60
10384;DHT22;5238;43.508;4.980;2023-04-07T13:53:16;22.70;82.60
10384;DHT22;5238;43.508;4.980;2023-04-07T13:55:49;22.60;82.70
10384;DHT22;5238;43.508;4.980;2023-04-07T13:58:20;22.60;82.50
10384;DHT22;5238;43.508;4.980;2023-04-07T14:00:48;22.50;83.10
10384;DHT22;5238;43.508;4.980;2023-04-07T14:06:13;22.50;83.90
10384;DHT22;5238;43.508;4.980;2023-04-07T14:08:54;22.50;83.50
10384;DHT22;5238;43.508;4.980;2023-04-07T14:11:28;22.40;83.30
10384;DHT22;5238;43.508;4.980;2023-04-07T14:14:12;22.40;83.10
10384;DHT22;5238;43.508;4.980;2023-04-07T14:16:43;22.50;83.90
10384;DHT22;5238;43.508;4.980;2023-04-07T14:19:39;22.50;84.00
10384;DHT22;5238;43.508;4.980;2023-04-07T14:22:06;22.50;84.30
10384;DHT22;5238;43.508;4.980;2023-04-07T14:24:35;22.60;83.40
10384;DHT22;5238;43.508;4.980;2023-04-07T14:27:05;22.60;83.00
10384;DHT22;5238;43.508;4.980;2023-04-07T14:30:14;22.50;84.60
10384;DHT22;5238;43.508;4.980;2023-04-07T14:32:43;22.50;85.30
10384;DHT22;5238;43.508;4.980;2023-04-07T14:35:11;22.40;85.30
10384;DHT22;5238;43.508;4.980;2023-04-07T14:37:53;22.40;85.10
10384;DHT22;5238;43.508;4.980;2023-04-07T14:40:39;22.30;84.80
10384;DHT22;5238;43.508;4.980;2023-04-07T14:43:09;22.30;86.00
10384;DHT22;5238;43.508;4.980;2023-04-07T14:45:39;22.20;84.60
10384;DHT22;5238;43.508;4.980;2023-04-07T14:48:12;22.20;84.40
10384;DHT22;5238;43.508;4.980;2023-04-07T14:50:41;22.20;85.10
10384;DHT22;5238;43.508;4.980;2023-04-07T14:53:26;22.20;83.70
10384;DHT22;5238;43.508;4.980;2023-04-07T14:56:07;22.20;86.00
10384;DHT22;5238;43.508;4.980;2023-04-07T14:59:02;22.20;84.80
10384;DHT22;5238;43.508;4.980;2023-04-07T15:01:32;22.20;85.30
10384;DHT22;5238;43.508;4.980;2023-04-07T15:04:14;22.20;84.10
10384;DHT22;5238;43.508;4.980;2023-04-07T15:06:50;22.20;83.90
10384;DHT22;5238;43.508;4.980;2023-04-07T15:09:32;22.20;83.70
10384;DHT22;5238;43.508;4.980;2023-04-07T15:39:19;22.30;82.80
10384;DHT22;5238;43.508;4.980;2023-04-07T15:41:48;22.30;82.60
10384;DHT22;5238;43.508;4.980;2023-04-07T15:44:19;22.40;82.70
10384;DHT22;5238;43.508;4.980;2023-04-07T15:46:46;22.40;82.00
10384;DHT22;5238;43.508;4.980;2023-04-07T15:49:17;22.50;81.90
10384;DHT22;5238;43.508;4.980;2023-04-07T15:51:46;22.60;81.20
10384;DHT22;5238;43.508;4.980;2023-04-07T15:54:13;22.60;80.90
10384;DHT22;5238;43.508;4.980;2023-04-07T15:56:42;22.60;81.40
10384;DHT22;5238;43.508;4.980;2023-04-07T15:59:15;22.60;81.20
10384;DHT22;5238;43.508;4.980;2023-04-07T16:01:42;22.70;80.70
10384;DHT22;5238;43.508;4.980;2023-04-07T16:04:12;22.60;80.80
10384;DHT22;5238;43.508;4.980;2023-04-07T16:06:43;22.50;80.00
10384;DHT22;5238;43.508;4.980;2023-04-07T16:09:10;22.30;80.10
10384;DHT22;5238;43.508;4.980;2023-04-07T16:11:42;22.20;80.10
10384;DHT22;5238;43.508;4.980;2023-04-07T16:14:09;22.20;80.90
10384;DHT22;5238;43.508;4.980;2023-04-07T16:16:38;22.10;80.70
10384;DHT22;5238;43.508;4.980;2023-04-07T16:19:09;22.10;80.60
10384;DHT22;5238;43.508;4.980;2023-04-07T16:21:36;22.10;80.20
10384;DHT22;5238;43.508;4.980;2023-04-07T16:24:04;22.00;80.40
10384;DHT22;5238;43.508;4.980;2023-04-07T16:26:31;22.00;80.50
10384;DHT22;5238;43.508;4.980;2023-04-07T16:29:02;21.90;80.80
10384;DHT22;5238;43.508;4.980;2023-04-07T16:31:29;21.90;80.60
10384;DHT22;5238;43.508;4.980;2023-04-07T16:33:56;21.90;80.30
10384;DHT22;5238;43.508;4.980;2023-04-07T16:36:26;21.80;80.40
10384;DHT22;5238;43.508;4.980;2023-04-07T16:38:58;21.70;80.30
10384;DHT22;5238;43.508;4.980;2023-04-07T16:41:28;21.70;80.10
10384;DHT22;5238;43.508;4.980;2023-04-07T16:44:00;21.70;80.50
10384;DHT22;5238;43.508;4.980;2023-04-07T16:46:27;21.60;80.60
10384;DHT22;5238;43.508;4.980;2023-04-07T16:49:00;21.60;79.70
10384;DHT22;5238;43.508;4.980;2023-04-07T16:51:29;21.60;79.50
10384;DHT22;5238;43.508;4.980;2023-04-07T17:07:25;21.20;77.70
10384;DHT22;5238;43.508;4.980;2023-04-07T17:09:55;21.20;77.90
10384;DHT22;5238;43.508;4.980;2023-04-07T17:12:23;21.10;78.00
10384;DHT22;5238;43.508;4.980;2023-04-07T17:14:50;21.10;78.50
10384;DHT22;5238;43.508;4.980;2023-04-07T17:17:20;21.10;78.70
10384;DHT22;5238;43.508;4.980;2023-04-07T17:19:47;21.10;78.60
10384;DHT22;5238;43.508;4.980;2023-04-07T17:22:15;21.10;79.10
10384;DHT22;5238;43.508;4.980;2023-04-07T17:24:44;21.00;78.40
10384;DHT22;5238;43.508;4.980;2023-04-07T17:27:12;21.00;78.10
10384;DHT22;5238;43.508;4.980;2023-04-07T17:29:53;20.90;78.00
10384;DHT22;5238;43.508;4.980;2023-04-07T17:32:21;20.80;77.50
10384;DHT22;5238;43.508;4.980;2023-04-07T17:34:50;20.70;77.30
10384;DHT22;5238;43.508;4.980;2023-04-07T17:37:17;20.70;77.30
10384;DHT22;5238;43.508;4.980;2023-04-07T17:39:45;20.60;77.40
10384;DHT22;5238;43.508;4.980;2023-04-07T17:42:13;20.50;77.40
10384;DHT22;5238;43.508;4.980;2023-04-07T17:44:45;20.40;76.90
10384;DHT22;5238;43.508;4.980;2023-04-07T17:47:16;20.30;76.90
10384;DHT22;5238;43.508;4.980;2023-04-07T17:49:42;20.20;76.90
10384;DHT22;5238;43.508;4.980;2023-04-07T17:52:13;20.10;76.90
10384;DHT22;5238;43.508;4.980;2023-04-07T17:54:41;20.10;77.60
10384;DHT22;5238;43.508;4.980;2023-04-07T17:57:10;20.00;77.40
10384;DHT22;5238;43.508;4.980;2023-04-07T17:59:39;19.90;77.10
10384;DHT22;5238;43.508;4.980;2023-04-07T18:05:34;19.80;77.30